Latest Weather Observations for Butlers Gorge

IDT60801

Issued at 1:35 pm EST Sunday 21 September 2014 (issued every 30 minutes, with the page automatically refreshed every 10 minutes)

About weather observations | Map of weather stations | Latest weather observations for TAS | Other Formats
Station Details ID: 096003 Name: BUTLERS GORGE Lat: -42.28 Lon: 146.28 Height: 667.0 m
Data from the previous 72 hours. | See also: Recent months at Butlers Gorge
Date/Time
EST
Temp
°C
App
Temp
°C
Dew
Point
Rel
Hum
%
Delta-T
°C
Wind Press
QNH
hPa
Press
MSL
hPa
Rain
since 9 am
mm
Dir
 
Spd
km/h
Gust
km/h
Spd
kts
Gust
kts
21/01:30pm 12.3 9.4 4.8 60 3.6 NW 9 15 5 8 - - 0.0
21/01:00pm 11.9 8.3 5.1 63 3.2 NW 13 22 7 12 - - 0.0
21/12:30pm 11.5 8.0 5.6 67 2.8 NW 13 20 7 11 - - 0.0
21/12:00pm 11.7 8.3 5.8 67 2.9 NNW 13 20 7 11 - - 0.0
21/11:30am 9.5 6.0 3.3 65 2.8 SW 11 17 6 9 - - 0.0
21/11:00am 9.5 6.0 3.5 66 2.7 W 11 22 6 12 - - 0.0
21/10:30am 9.7 5.8 3.4 65 2.8 WSW 13 22 7 12 - - 0.0
21/10:00am 9.4 5.3 4.2 70 2.4 SW 15 28 8 15 - - 0.0
21/09:30am 8.6 4.3 3.2 69 2.4 WSW 15 24 8 13 - - 0.0
21/09:00am 8.8 5.5 4.4 74 2.0 WSW 11 28 6 15 - - 0.8
21/08:30am 8.5 5.8 5.6 82 1.4 W 9 19 5 10 - - 0.8
21/08:00am 7.5 4.8 5.6 88 0.9 W 9 19 5 10 - - 0.8
21/07:30am 6.9 4.6 5.7 92 0.6 NNW 7 11 4 6 - - 0.6
21/07:00am 6.4 3.6 5.0 91 0.6 NW 9 17 5 9 - - 0.6
21/06:30am 5.9 3.0 4.9 93 0.5 W 9 17 5 9 - - 0.6
21/06:00am 6.1 2.7 4.1 87 0.9 WNW 11 20 6 11 - - 0.6
21/05:30am 5.9 2.5 3.9 87 0.9 WNW 11 17 6 9 - - 0.6
21/05:00am 5.7 2.6 3.7 87 0.9 WNW 9 17 5 9 - - 0.6
21/04:30am 5.9 2.0 3.2 83 1.2 NW 13 22 7 12 - - 0.6
21/04:00am 6.1 2.4 2.6 78 1.5 WNW 11 20 6 11 - - 0.6
21/03:30am 6.1 2.4 2.2 76 1.7 W 11 19 6 10 - - 0.6
21/03:00am 5.9 1.7 1.6 74 1.8 W 13 28 7 15 - - 0.6
21/02:30am 6.0 1.3 1.2 71 2.0 W 15 30 8 16 - - 0.6
21/02:00am 5.6 2.1 1.5 75 1.7 W 9 26 5 14 - - 0.6
21/01:30am 5.4 1.7 2.1 79 1.4 W 11 20 6 11 - - 0.6
21/01:00am 5.3 1.5 1.6 77 1.5 W 11 20 6 11 - - 0.6
21/12:30am 5.2 1.8 1.9 79 1.4 WNW 9 15 5 8 - - 0.6
21/12:00am 5.6 1.9 2.3 79 1.4 W 11 20 6 11 - - 0.6
 
Date/Time
EST
Temp
°C
App
Temp
°C
Dew
Point
Rel
Hum
%
Delta-T
°C
Wind Press
QNH
hPa
Press
MSL
hPa
Rain
since 9 am
mm
Dir
 
Spd
km/h
Gust
km/h
Spd
kts
Gust
kts
20/11:30pm 5.6 2.9 2.6 81 1.3 WNW 6 13 3 7 - - 0.6
20/11:00pm 5.6 2.4 2.9 83 1.2 W 9 19 5 10 - - 0.6
20/10:30pm 5.6 1.9 2.4 80 1.4 W 11 24 6 13 - - 0.6
20/10:00pm 5.5 2.5 2.2 79 1.4 WSW 7 15 4 8 - - 0.6
20/09:30pm 5.7 2.4 2.5 80 1.4 WNW 9 17 5 9 - - 0.6
20/09:00pm 5.4 3.5 2.6 82 1.2 W 2 9 1 5 - - 0.6
20/08:30pm 5.2 2.0 3.1 86 0.9 W 9 17 5 9 - - 0.6
20/08:00pm 5.5 2.7 3.2 85 1.0 WSW 7 15 4 8 - - 0.6
20/07:30pm 5.5 2.4 3.8 89 0.7 W 9 20 5 11 - - 0.6
20/07:00pm 5.6 2.5 3.6 87 0.9 W 9 19 5 10 - - 0.6
20/06:30pm 5.7 3.1 3.0 83 1.2 W 6 9 3 5 - - 0.6
20/06:00pm 5.8 3.6 3.1 83 1.2 WSW 4 7 2 4 - - 0.6
20/05:30pm 5.9 3.2 3.7 86 1.0 NNW 7 13 4 7 - - 0.4
20/05:00pm 6.2 3.6 4.2 87 0.9 NW 7 15 4 8 - - 0.4
20/04:30pm 6.2 3.1 3.7 84 1.1 W 9 19 5 10 - - 0.4
20/04:00pm 6.5 3.5 4.2 85 1.0 W 9 15 5 8 - - 0.4
20/03:30pm 7.0 4.5 4.7 85 1.0 W 7 13 4 7 - - 0.4
20/03:00pm 6.8 3.9 4.8 87 0.9 W 9 19 5 10 - - 0.4
20/02:30pm 7.3 4.0 4.3 81 1.4 W 11 20 6 11 - - 0.4
20/02:00pm 8.6 5.1 3.6 71 2.2 W 11 24 6 13 - - 0.4
20/01:30pm 7.7 5.4 5.7 87 0.9 W 7 17 4 9 - - 0.4
20/01:00pm 8.2 5.3 4.4 77 1.7 WSW 9 15 5 8 - - 0.4
20/12:30pm 7.7 5.4 5.8 88 0.9 NW 7 13 4 7 - - 0.4
20/12:00pm 7.5 4.8 5.6 88 0.9 W 9 13 5 7 - - 0.4
20/11:30am 7.5 5.2 5.8 89 0.8 SW 7 13 4 7 - - 0.4
20/11:00am 7.6 5.2 5.1 84 1.2 WSW 7 11 4 6 - - 0.0
20/10:30am 8.5 4.8 4.3 75 1.9 W 13 24 7 13 - - 0.0
20/10:00am 8.2 5.2 4.0 75 1.9 WNW 9 17 5 9 - - 0.0
20/09:30am 7.6 4.5 3.8 77 1.7 W 9 15 5 8 - - 0.0
20/09:00am 6.9 2.7 4.0 82 1.3 W 15 28 8 15 - - 7.2
20/08:30am 7.2 4.4 5.2 87 0.9 NW 9 15 5 8 - - 7.2
20/08:00am 6.5 4.0 4.8 89 0.8 NNW 7 13 4 7 - - 7.2
20/07:30am 6.4 3.1 4.6 88 0.8 NW 11 19 6 10 - - 7.2
20/07:00am 5.7 3.8 4.8 94 0.4 N 4 9 2 5 - - 7.2
20/06:30am 5.5 3.0 4.5 93 0.4 NNW 7 13 4 7 - - 7.2
20/06:00am 5.5 2.6 4.5 93 0.4 NNW 9 17 5 9 - - 7.2
20/05:30am 5.5 3.0 4.5 93 0.4 NNW 7 9 4 5 - - 7.2
20/05:00am 5.5 3.0 4.5 93 0.4 NW 7 11 4 6 - - 7.2
20/04:30am 5.5 3.1 4.3 92 0.5 W 6 11 3 6 - - 7.0
20/04:00am 5.4 2.3 3.7 89 0.7 NW 9 15 5 8 - - 7.0
20/03:30am 5.6 2.7 4.4 92 0.5 WNW 9 15 5 8 - - 7.0
20/03:00am 5.6 3.3 4.7 94 0.4 NW 6 13 3 7 - - 6.8
20/02:30am 5.8 3.2 4.4 91 0.6 WNW 7 19 4 10 - - 6.6
20/02:00am 5.6 3.3 4.7 94 0.4 NW 6 9 3 5 - - 6.4
20/01:30am 5.8 3.9 4.8 93 0.5 WNW 4 9 2 5 - - 5.8
20/01:00am 5.7 3.2 4.5 92 0.5 W 7 17 4 9 - - 5.4
20/12:30am 5.9 2.6 4.4 90 0.7 SW 11 19 6 10 - - 5.0
20/12:00am 5.9 2.5 4.2 89 0.8 SW 11 17 6 9 - - 4.6
 
Date/Time
EST
Temp
°C
App
Temp
°C
Dew
Point
Rel
Hum
%
Delta-T
°C
Wind Press
QNH
hPa
Press
MSL
hPa
Rain
since 9 am
mm
Dir
 
Spd
km/h
Gust
km/h
Spd
kts
Gust
kts
19/11:30pm 5.9 2.6 4.7 92 0.5 WSW 11 19 6 10 - - 4.0
19/11:00pm 5.9 3.0 4.5 91 0.6 WSW 9 22 5 12 - - 3.6
19/10:30pm 5.8 2.0 4.1 89 0.8 WSW 13 20 7 11 - - 3.4
19/10:00pm 5.7 2.4 4.5 92 0.5 WSW 11 17 6 9 - - 3.2
19/09:30pm 5.9 2.2 4.5 91 0.6 WSW 13 28 7 15 - - 2.8
19/09:00pm 5.9 2.2 4.7 92 0.5 WSW 13 28 7 15 - - 2.8
19/08:30pm 5.8 2.9 4.4 91 0.6 W 9 19 5 10 - - 2.0
19/08:00pm 5.9 3.0 4.7 92 0.5 WSW 9 13 5 7 - - 1.6
19/07:30pm 6.0 2.3 4.5 90 0.7 WSW 13 24 7 13 - - 1.2
19/07:00pm 5.7 3.2 4.5 92 0.5 W 7 11 4 6 - - 1.0
19/06:30pm 6.1 2.6 3.4 83 1.2 W 11 20 6 11 - - 0.8
19/06:00pm 6.6 2.7 3.6 81 1.3 W 13 24 7 13 - - 0.8
19/05:30pm 6.3 3.1 3.1 80 1.4 WSW 9 15 5 8 - - 0.8
19/05:00pm 6.3 2.9 4.0 85 1.0 WSW 11 19 6 10 - - 0.8
19/04:30pm 6.5 1.3 3.8 83 1.2 SW 20 33 11 18 - - 0.6
19/04:00pm 8.4 3.6 2.6 67 2.5 W 17 32 9 17 - - 0.4
19/03:30pm 8.5 3.0 2.1 64 2.8 WSW 20 39 11 21 - - 0.4
19/03:00pm 7.5 3.1 4.5 81 1.4 SW 17 33 9 18 - - 0.4
19/02:30pm 7.9 3.4 4.3 78 1.6 WSW 17 24 9 13 - - 0.4
19/02:00pm 8.6 4.5 4.6 76 1.8 WSW 15 24 8 13 - - 0.4
19/01:30pm 8.5 4.2 3.1 69 2.4 SW 15 26 8 14 - - 0.4
19/01:00pm 8.0 3.9 4.4 78 1.6 WSW 15 37 8 20 - - 0.4
19/12:30pm 8.9 4.6 3.5 69 2.4 WSW 15 24 8 13 - - 0.0
19/12:00pm 8.2 4.4 3.9 74 1.9 WSW 13 24 7 13 - - 0.0
19/11:30am 7.0 2.7 3.3 77 1.6 WSW 15 30 8 16 - - 0.0
19/11:00am 7.9 4.1 4.1 77 1.7 WSW 13 20 7 11 - - 0.0
19/10:30am 7.5 2.7 2.4 70 2.2 WSW 17 28 9 15 - - 0.0
19/10:00am 6.6 2.2 2.7 76 1.7 WSW 15 24 8 13 - - 0.0
19/09:30am 6.4 1.7 2.9 78 1.5 WSW 17 33 9 18 - - 0.0
19/09:00am 5.4 1.4 3.1 85 1.0 W 13 22 7 12 - - 10.6
19/08:30am 5.4 1.4 2.6 82 1.2 W 13 26 7 14 - - 10.6
19/08:00am 5.6 1.7 3.4 86 1.0 WSW 13 26 7 14 - - 10.6
19/07:30am 5.1 2.7 4.1 93 0.4 W 6 9 3 5 - - 10.4
19/07:00am 5.0 2.3 3.7 91 0.6 WNW 7 17 4 9 - - 10.0
19/06:30am 5.0 1.5 3.3 89 0.7 W 11 20 6 11 - - 9.8
19/06:00am 5.4 1.5 3.6 88 0.8 SW 13 35 7 19 - - 9.6
19/05:30am 5.5 2.9 4.2 91 0.6 W 7 13 4 7 - - 9.2
19/05:00am 5.4 2.0 4.1 91 0.6 W 11 19 6 10 - - 8.8
19/04:30am 5.6 1.7 3.4 86 1.0 W 13 28 7 15 - - 8.0
19/04:00am 5.2 0.8 2.9 85 1.0 W 15 28 8 15 - - 7.8
19/03:30am 5.3 1.8 3.5 88 0.8 NW 11 20 6 11 - - 7.6
19/03:00am 5.3 1.8 3.5 88 0.8 WNW 11 24 6 13 - - 7.2
19/02:30am 5.4 1.5 3.6 88 0.8 WSW 13 24 7 13 - - 7.0
19/02:00am 5.3 2.7 4.0 91 0.6 SSW 7 17 4 9 - - 6.6
19/01:30am 5.2 1.4 3.7 90 0.7 WSW 13 24 7 13 - - 6.0
19/01:00am 5.0 1.9 3.5 90 0.7 WSW 9 17 5 9 - - 5.6
19/12:30am 5.0 0.7 3.3 89 0.7 WSW 15 30 8 16 - - 5.2
19/12:00am 4.9 1.3 3.1 88 0.8 W 11 19 6 10 - - 5.0
 
Date/Time
EST
Temp
°C
App
Temp
°C
Dew
Point
Rel
Hum
%
Delta-T
°C
Wind Press
QNH
hPa
Press
MSL
hPa
Rain
since 9 am
mm
Dir
 
Spd
km/h
Gust
km/h
Spd
kts
Gust
kts
18/11:30pm 4.7 1.1 3.0 89 0.7 W 11 22 6 12 - - 5.0
18/11:00pm 4.7 1.0 2.4 85 1.0 WNW 11 26 6 14 - - 4.8
18/10:30pm 4.5 1.2 2.5 87 0.8 WNW 9 22 5 12 - - 4.8
18/10:00pm 4.4 1.0 1.9 84 1.0 NW 9 20 5 11 - - 4.6
18/09:30pm 4.2 -0.3 2.4 88 0.8 SW 15 35 8 19 - - 4.6
18/09:00pm 4.2 0.1 2.4 88 0.8 WSW 13 28 7 15 - - 4.6
18/08:30pm 4.3 0.3 2.8 90 0.6 W 13 26 7 14 - - 3.8
18/08:00pm 4.4 0.3 2.3 86 0.9 W 13 20 7 11 - - 3.6
18/07:30pm 4.6 1.3 2.6 87 0.8 WSW 9 20 5 11 - - 3.4
18/07:00pm 4.4 0.7 2.4 87 0.8 WSW 11 20 6 11 - - 3.4
18/06:30pm 4.2 0.9 2.6 89 0.7 W 9 17 5 9 - - 3.2
18/06:00pm 4.5 0.4 2.2 85 1.0 W 13 22 7 12 - - 2.6
18/05:30pm 5.1 0.1 1.4 77 1.5 SSW 17 39 9 21 - - 2.4
18/05:00pm 5.1 0.4 1.2 76 1.6 SW 15 26 8 14 - - 2.4
18/04:30pm 4.9 0.7 1.6 79 1.4 WSW 13 26 7 14 - - 2.4
18/04:00pm 4.7 -0.6 2.1 83 1.1 WSW 19 35 10 19 - - 2.4
18/03:30pm 4.9 1.3 2.8 86 0.9 WSW 11 19 6 10 - - 2.0
18/03:00pm 5.4 1.0 2.8 83 1.1 W 15 30 8 16 - - 1.4
18/02:30pm 5.1 1.5 2.8 85 1.0 WSW 11 19 6 10 - - 1.4
18/02:00pm 5.4 1.2 1.7 77 1.5 W 13 17 7 9 - - 1.0

Other Formats:

Comma delimited format used in spreadsheet applications
http://www.bom.gov.au/fwo/IDT60801/IDT60801.94959.axf

JavaScript Object Notation format (JSON) in row-major order
http://www.bom.gov.au/fwo/IDT60801/IDT60801.94959.json